Squirrel Hill, Pennsylvania
Current Conditions -  °F | °C
As of 12:53 PM on Sunday 25 Jan 2015 (Local Time) from KAGC Reporting Station
Haze Haze  
Wind Chill: 34°   Ceiling: 800
Heat Index: 34°   Visibility: 2.5mi
Dew Point: 29°   Wind: 3mph
Humidity: 82%   Direction: 240°WSW
Pressure: 29.77"   Gusts: NA
Location:  40.4306°N, 79.9221°W
Report Text: KAGC 251753Z 24003KT 2 1/2SM BR OVC008 01/M02 A2977 RMK AO2 SLP098 T00111017 10017 20006 57006
Loading
Personal Weather Stations






























Interactive Weather Map New forecast layout! Learn more

10-Day Weather Forecast

Advertisements
Track Severe Weather on mobile